Time;durP1;ratioP1;P1;durP2;ratioP2;P2;SDS_P1;SDS_P2;PMS_P1;PMS_P2;Temp;Humidity;BMP_temperature;BMP_pressure;BME280_temperature;BME280_humidity;BME280_pressure;Samples;Min_cycle;Max_cycle;Signal;HPM_P1;HPM_P2
2023/03/01 00:01:03;;;;;;;12.18;7.78;;;;;;;;;;4997614;28;22207;-82
2023/03/01 00:03:29;;;;;;;10.18;7.40;;;;;;;;;;4997737;28;20422;-82
2023/03/01 00:05:56;;;;;;;11.15;7.97;;;;;;;;;;4997798;28;20414;-83
2023/03/01 00:08:22;;;;;;;10.55;7.97;;;;;;;;;;4996154;28;20427;-83
2023/03/01 00:10:49;;;;;;;10.57;6.95;;;;;;;;;;4997114;28;20418;-81
2023/03/01 00:13:17;;;;;;;9.15;6.85;;;;;;;;;;4997002;28;20432;-82
2023/03/01 00:15:43;;;;;;;9.40;6.93;;;;;;;;;;4998371;28;20469;-82
2023/03/01 00:18:09;;;;;;;10.60;7.25;;;;;;;;;;4997511;28;20439;-84
2023/03/01 00:20:36;;;;;;;10.57;7.00;;;;;;;;;;4995776;28;20453;-84
2023/03/01 00:23:02;;;;;;;9.57;7.00;;;;;;;;;;4996993;28;20433;-83
2023/03/01 00:25:29;;;;;;;9.80;6.50;;;;;;;;;;4997633;28;20466;-83
2023/03/01 00:27:55;;;;;;;10.80;6.50;;;;;;;;;;4999648;28;20492;-83
2023/03/01 00:30:23;;;;;;;9.15;6.93;;;;;;;;;;5001529;28;20441;-82
2023/03/01 00:32:50;;;;;;;9.95;6.50;;;;;;;;;;4994550;28;20426;-84
2023/03/01 00:35:16;;;;;;;7.90;6.30;;;;;;;;;;4994602;28;21038;-82
2023/03/01 00:37:43;;;;;;;12.80;7.63;;;;;;;;;;4994150;28;20430;-83
2023/03/01 00:40:10;;;;;;;9.20;6.47;;;;;;;;;;4993919;28;20457;-82
2023/03/01 00:42:36;;;;;;;8.80;6.43;;;;;;;;;;4994640;28;20442;-82
2023/03/01 00:45:03;;;;;;;9.80;6.85;;;;;;;;;;4994553;28;20438;-83
2023/03/01 00:47:30;;;;;;;9.30;7.60;;;;;;;;;;4996243;28;20435;-82
2023/03/01 00:49:58;;;;;;;9.35;7.20;;;;;;;;;;4994845;28;20786;-83
2023/03/01 00:52:24;;;;;;;11.65;7.80;;;;;;;;;;4993885;28;20414;-82
2023/03/01 00:54:52;;;;;;;10.63;7.65;;;;;;;;;;4996096;28;20431;-83
2023/03/01 00:57:19;;;;;;;9.67;7.23;;;;;;;;;;4994759;28;20418;-82
2023/03/01 00:59:45;;;;;;;10.88;7.63;;;;;;;;;;4994962;28;20431;-83
2023/03/01 01:02:12;;;;;;;12.50;8.02;;;;;;;;;;4996284;28;20422;-82
2023/03/01 01:04:39;;;;;;;9.68;7.97;;;;;;;;;;4997916;28;20433;-82
2023/03/01 01:07:06;;;;;;;10.48;7.80;;;;;;;;;;4994900;28;20431;-82
2023/03/01 01:09:32;;;;;;;10.43;8.02;;;;;;;;;;4996698;28;20424;-82
2023/03/01 01:11:59;;;;;;;11.98;8.60;;;;;;;;;;5000940;28;20445;-82
2023/03/01 01:14:25;;;;;;;9.68;7.82;;;;;;;;;;4996029;28;20467;-83
2023/03/01 01:16:51;;;;;;;9.48;7.20;;;;;;;;;;4994813;28;20426;-82
2023/03/01 01:19:18;;;;;;;11.60;8.85;;;;;;;;;;4995138;28;21000;-82
2023/03/01 01:21:46;;;;;;;11.70;7.30;;;;;;;;;;4995731;28;20451;-82
2023/03/01 01:24:12;;;;;;;9.02;7.15;;;;;;;;;;4995444;28;20442;-82
2023/03/01 01:26:39;;;;;;;9.77;7.55;;;;;;;;;;4993384;28;20438;-82
2023/03/01 01:29:05;;;;;;;9.55;7.13;;;;;;;;;;4993194;28;20432;-86
2023/03/01 01:31:32;;;;;;;11.40;7.82;;;;;;;;;;4998604;28;20436;-84
2023/03/01 01:33:59;;;;;;;9.32;7.50;;;;;;;;;;4993794;28;20432;-82
2023/03/01 01:36:26;;;;;;;11.60;7.00;;;;;;;;;;4992232;28;20431;-84
2023/03/01 01:38:54;;;;;;;9.73;7.20;;;;;;;;;;4995171;28;20424;-82
2023/03/01 01:41:20;;;;;;;10.00;7.63;;;;;;;;;;4993178;28;20447;-83
2023/03/01 01:43:48;;;;;;;9.38;7.47;;;;;;;;;;4991480;28;20430;-82
2023/03/01 01:46:21;;;;;;;8.55;7.07;;;;;;;;;;4994275;28;20443;-82
2023/03/01 01:48:49;;;;;;;10.80;7.90;;;;;;;;;;4991142;28;20430;-81
2023/03/01 01:51:19;;;;;;;9.23;6.70;;;;;;;;;;4991158;28;20442;-83
2023/03/01 01:53:46;;;;;;;10.30;6.85;;;;;;;;;;4992769;28;20427;-82
2023/03/01 01:56:16;;;;;;;9.52;7.43;;;;;;;;;;4994436;28;20448;-82
2023/03/01 01:58:43;;;;;;;10.43;7.28;;;;;;;;;;4991489;28;20445;-82
2023/03/01 02:01:09;;;;;;;8.02;6.75;;;;;;;;;;4992490;28;20434;-82
2023/03/01 02:03:39;;;;;;;9.65;7.35;;;;;;;;;;4993685;28;20955;-82
2023/03/01 02:06:07;;;;;;;9.50;7.10;;;;;;;;;;4993407;28;20468;-82
2023/03/01 02:08:36;;;;;;;10.90;7.20;;;;;;;;;;4993248;28;20438;-85
2023/03/01 02:11:04;;;;;;;8.63;6.70;;;;;;;;;;4994372;28;20831;-82
2023/03/01 02:13:33;;;;;;;10.20;6.40;;;;;;;;;;4992339;28;20436;-81
2023/03/01 02:16:00;;;;;;;10.30;7.10;;;;;;;;;;4993037;28;20443;-82
2023/03/01 02:18:27;;;;;;;10.48;7.60;;;;;;;;;;4991336;28;20436;-86
2023/03/01 02:21:00;;;;;;;11.15;7.13;;;;;;;;;;4995723;28;20437;-82
2023/03/01 02:23:26;;;;;;;9.00;7.07;;;;;;;;;;4993380;28;20487;-82
2023/03/01 02:25:59;;;;;;;8.65;6.78;;;;;;;;;;5005137;23;20441;-87
2023/03/01 02:28:32;;;;;;;10.13;8.10;;;;;;;;;;5018440;28;20485;-86
2023/03/01 02:33:39;;;;;;;8.98;7.75;;;;;;;;;;5000141;28;20485;-84
2023/03/01 02:36:08;;;;;;;10.85;7.43;;;;;;;;;;5013821;28;20436;-83
2023/03/01 02:38:34;;;;;;;10.87;7.77;;;;;;;;;;5013906;28;20440;-82
2023/03/01 02:41:02;;;;;;;10.32;8.18;;;;;;;;;;5016037;28;20924;-81
2023/03/01 02:43:32;;;;;;;11.05;7.93;;;;;;;;;;5012606;28;20429;-82
2023/03/01 02:45:59;;;;;;;11.52;7.90;;;;;;;;;;5012951;28;20480;-82
2023/03/01 02:48:26;;;;;;;11.25;6.90;;;;;;;;;;5013271;28;20427;-83
2023/03/01 02:51:05;;;;;;;10.45;7.75;;;;;;;;;;5012849;28;20453;-81
2023/03/01 02:53:36;;;;;;;10.02;7.80;;;;;;;;;;5011191;28;20432;-82
2023/03/01 02:56:03;;;;;;;11.05;7.70;;;;;;;;;;5014241;28;20819;-85
2023/03/01 02:58:31;;;;;;;9.45;7.43;;;;;;;;;;5015032;28;20474;-85
2023/03/01 03:01:00;;;;;;;10.77;8.20;;;;;;;;;;5012414;28;20451;-82
2023/03/01 03:03:27;;;;;;;10.75;8.10;;;;;;;;;;5014597;28;20421;-82
2023/03/01 03:05:53;;;;;;;11.30;7.97;;;;;;;;;;5014580;28;20445;-81
2023/03/01 03:08:23;;;;;;;9.50;8.25;;;;;;;;;;5014390;28;20450;-82
2023/03/01 03:10:49;;;;;;;11.88;8.50;;;;;;;;;;5013948;28;20469;-82
2023/03/01 03:13:16;;;;;;;11.83;8.33;;;;;;;;;;5011305;28;20449;-82
2023/03/01 03:15:44;;;;;;;11.07;8.40;;;;;;;;;;5011459;28;20434;-81
2023/03/01 03:18:12;;;;;;;12.80;8.68;;;;;;;;;;5012502;28;20425;-82
2023/03/01 03:20:40;;;;;;;12.52;8.77;;;;;;;;;;5017698;28;20958;-81
2023/03/01 03:23:07;;;;;;;12.63;8.77;;;;;;;;;;5016407;28;20874;-83
2023/03/01 03:25:37;;;;;;;12.00;8.77;;;;;;;;;;5015935;28;20456;-82
2023/03/01 03:28:09;;;;;;;12.98;8.45;;;;;;;;;;5015914;28;20434;-82
2023/03/01 03:30:36;;;;;;;11.32;9.15;;;;;;;;;;5016520;28;20448;-81
2023/03/01 03:33:04;;;;;;;10.90;9.27;;;;;;;;;;5016804;28;20440;-81
2023/03/01 03:35:31;;;;;;;11.98;9.45;;;;;;;;;;5016637;28;20453;-82
2023/03/01 03:38:06;;;;;;;11.60;8.70;;;;;;;;;;5015702;28;20432;-81
2023/03/01 03:40:33;;;;;;;12.50;8.82;;;;;;;;;;5016024;28;20997;-81
2023/03/01 03:42:59;;;;;;;12.33;9.53;;;;;;;;;;5014934;28;20426;-83
2023/03/01 03:45:26;;;;;;;12.43;8.60;;;;;;;;;;5017638;28;20432;-81
2023/03/01 03:47:52;;;;;;;12.35;9.23;;;;;;;;;;5016567;28;20425;-81
2023/03/01 03:50:20;;;;;;;13.93;9.38;;;;;;;;;;5019541;28;20444;-82
2023/03/01 03:52:46;;;;;;;14.60;9.80;;;;;;;;;;5015798;28;20461;-81
2023/03/01 03:55:13;;;;;;;10.65;8.95;;;;;;;;;;5017563;28;20438;-81
2023/03/01 03:57:40;;;;;;;15.77;9.10;;;;;;;;;;5015880;28;20425;-83
2023/03/01 04:00:12;;;;;;;13.95;10.07;;;;;;;;;;5014929;28;20410;-82
2023/03/01 04:02:38;;;;;;;12.98;9.20;;;;;;;;;;5017546;28;20514;-81
2023/03/01 04:05:05;;;;;;;13.50;9.75;;;;;;;;;;5016681;28;20423;-83
2023/03/01 04:07:33;;;;;;;12.47;9.80;;;;;;;;;;5016465;28;20417;-81
2023/03/01 04:09:59;;;;;;;10.77;8.50;;;;;;;;;;5013891;28;20430;-84
2023/03/01 04:12:26;;;;;;;12.70;9.60;;;;;;;;;;5019082;28;20429;-82
2023/03/01 04:14:52;;;;;;;13.30;8.70;;;;;;;;;;5014727;28;20446;-82
2023/03/01 04:17:18;;;;;;;11.63;8.98;;;;;;;;;;5016866;28;20425;-82
2023/03/01 04:19:48;;;;;;;12.73;9.23;;;;;;;;;;5018841;28;20435;-82
2023/03/01 04:22:17;;;;;;;12.65;9.50;;;;;;;;;;5017989;28;20490;-82
2023/03/01 04:24:44;;;;;;;12.85;8.68;;;;;;;;;;5019849;28;20437;-81
2023/03/01 04:27:11;;;;;;;12.98;8.70;;;;;;;;;;5015230;28;20987;-81
2023/03/01 04:29:37;;;;;;;10.75;8.38;;;;;;;;;;5014589;28;20544;-83
2023/03/01 04:32:04;;;;;;;12.25;9.55;;;;;;;;;;5014675;28;20432;-82
2023/03/01 04:34:31;;;;;;;12.93;9.13;;;;;;;;;;5016414;28;20871;-82
2023/03/01 04:36:57;;;;;;;12.20;8.97;;;;;;;;;;5015788;28;20445;-83
2023/03/01 04:39:24;;;;;;;12.40;10.00;;;;;;;;;;5016696;28;20487;-81
2023/03/01 04:41:52;;;;;;;11.95;8.35;;;;;;;;;;5016338;28;20451;-81
2023/03/01 04:44:19;;;;;;;11.95;9.00;;;;;;;;;;5014802;28;20425;-82
2023/03/01 04:46:45;;;;;;;12.37;8.87;;;;;;;;;;5018311;28;20438;-81
2023/03/01 04:49:12;;;;;;;12.88;9.18;;;;;;;;;;5012981;28;20434;-81
2023/03/01 04:51:39;;;;;;;12.35;9.20;;;;;;;;;;5013529;28;20469;-84
2023/03/01 04:54:08;;;;;;;12.90;8.45;;;;;;;;;;5016635;28;20430;-81
2023/03/01 04:56:34;;;;;;;12.93;8.70;;;;;;;;;;5016597;28;20465;-82
2023/03/01 04:59:05;;;;;;;11.20;8.85;;;;;;;;;;5013932;28;20818;-81
2023/03/01 05:01:31;;;;;;;11.95;8.45;;;;;;;;;;5015096;28;20498;-83
2023/03/01 05:04:02;;;;;;;11.25;8.20;;;;;;;;;;5016204;28;20448;-81
2023/03/01 05:06:29;;;;;;;10.88;8.90;;;;;;;;;;5014942;28;20456;-81
2023/03/01 05:08:58;;;;;;;12.18;8.85;;;;;;;;;;5013914;28;20420;-81
2023/03/01 05:11:24;;;;;;;13.27;9.13;;;;;;;;;;5014111;28;20436;-82
2023/03/01 05:13:54;;;;;;;11.98;8.80;;;;;;;;;;5013894;28;20487;-84
2023/03/01 05:16:22;;;;;;;12.35;8.98;;;;;;;;;;5016078;28;20456;-81
2023/03/01 05:18:50;;;;;;;13.80;8.70;;;;;;;;;;5014091;28;20432;-81
2023/03/01 05:21:17;;;;;;;14.05;9.77;;;;;;;;;;5012957;28;20438;-81
2023/03/01 05:23:43;;;;;;;12.48;8.77;;;;;;;;;;5015232;28;20446;-81
2023/03/01 05:26:10;;;;;;;13.70;9.10;;;;;;;;;;5013028;28;20437;-82
2023/03/01 05:28:39;;;;;;;13.60;9.13;;;;;;;;;;5016758;28;20454;-83
2023/03/01 05:31:09;;;;;;;12.85;9.10;;;;;;;;;;5016156;28;20435;-82
2023/03/01 05:33:37;;;;;;;12.32;9.40;;;;;;;;;;5010621;28;20520;-82
2023/03/01 05:36:04;;;;;;;13.50;9.70;;;;;;;;;;5018205;28;20500;-84
2023/03/01 05:38:30;;;;;;;17.88;9.57;;;;;;;;;;5017618;28;20427;-82
2023/03/01 05:40:57;;;;;;;11.32;9.27;;;;;;;;;;5015319;28;20426;-86
2023/03/01 05:43:23;;;;;;;13.00;9.53;;;;;;;;;;5012625;28;20424;-81
2023/03/01 05:45:49;;;;;;;11.77;8.80;;;;;;;;;;5013157;28;20426;-82
2023/03/01 05:48:16;;;;;;;11.95;9.27;;;;;;;;;;5013104;28;20430;-80
2023/03/01 05:50:45;;;;;;;12.38;9.48;;;;;;;;;;5014223;28;20437;-82
2023/03/01 05:53:13;;;;;;;10.57;8.50;;;;;;;;;;5014824;28;20434;-81
2023/03/01 05:55:39;;;;;;;9.27;8.20;;;;;;;;;;5014698;28;20442;-82
2023/03/01 05:58:07;;;;;;;13.95;10.20;;;;;;;;;;5014298;28;20430;-81
2023/03/01 06:00:34;;;;;;;15.70;9.82;;;;;;;;;;5013685;28;20461;-82
2023/03/01 06:03:00;;;;;;;10.13;8.40;;;;;;;;;;5013572;28;20425;-84
2023/03/01 06:05:27;;;;;;;16.45;9.40;;;;;;;;;;5016072;28;20429;-81
2023/03/01 06:07:55;;;;;;;11.88;9.13;;;;;;;;;;5015017;28;20424;-82
2023/03/01 06:10:22;;;;;;;16.42;10.23;;;;;;;;;;5014079;28;20441;-83
2023/03/01 06:12:48;;;;;;;13.77;9.55;;;;;;;;;;5014877;28;20436;-81
2023/03/01 06:15:16;;;;;;;13.18;9.75;;;;;;;;;;5014264;28;20429;-86
2023/03/01 06:17:43;;;;;;;12.25;9.25;;;;;;;;;;5013201;28;20457;-81
2023/03/01 06:20:11;;;;;;;13.20;10.25;;;;;;;;;;5014361;28;20428;-82
2023/03/01 06:22:37;;;;;;;15.65;10.90;;;;;;;;;;5014990;28;20417;-82
2023/03/01 06:25:06;;;;;;;12.30;10.15;;;;;;;;;;5015173;28;20440;-81
2023/03/01 06:27:32;;;;;;;12.13;9.60;;;;;;;;;;5014561;28;20792;-83
2023/03/01 06:29:58;;;;;;;14.25;10.98;;;;;;;;;;5014780;28;20436;-81
2023/03/01 06:32:25;;;;;;;13.88;9.85;;;;;;;;;;5013642;28;20426;-84
2023/03/01 06:34:51;;;;;;;11.57;10.18;;;;;;;;;;5013093;28;20447;-81
2023/03/01 06:37:17;;;;;;;15.00;10.10;;;;;;;;;;5014095;28;20415;-83
2023/03/01 06:39:44;;;;;;;13.73;10.50;;;;;;;;;;5015272;28;21216;-84
2023/03/01 06:42:11;;;;;;;13.30;10.68;;;;;;;;;;5013667;28;20422;-83
2023/03/01 06:44:38;;;;;;;13.02;10.75;;;;;;;;;;5013379;28;20743;-81
2023/03/01 06:47:05;;;;;;;14.00;10.13;;;;;;;;;;5017086;28;20424;-81
2023/03/01 06:49:31;;;;;;;13.68;10.38;;;;;;;;;;5013101;28;20441;-81
2023/03/01 06:51:57;;;;;;;13.38;9.75;;;;;;;;;;5013501;28;20415;-82
2023/03/01 06:54:24;;;;;;;10.32;8.20;;;;;;;;;;5017335;28;20434;-83
2023/03/01 06:56:51;;;;;;;11.27;7.88;;;;;;;;;;5018207;28;20859;-83
2023/03/01 06:59:18;;;;;;;11.85;8.10;;;;;;;;;;5016272;28;20439;-81
2023/03/01 07:01:45;;;;;;;9.25;7.50;;;;;;;;;;5017132;28;20437;-82
2023/03/01 07:04:11;;;;;;;11.38;7.90;;;;;;;;;;5017197;28;20451;-82
2023/03/01 07:06:38;;;;;;;10.00;7.55;;;;;;;;;;5016670;28;20937;-81
2023/03/01 07:09:04;;;;;;;11.60;7.53;;;;;;;;;;5015935;28;20447;-82
2023/03/01 07:11:30;;;;;;;12.30;7.90;;;;;;;;;;5017913;28;20784;-81
2023/03/01 07:13:58;;;;;;;10.40;8.10;;;;;;;;;;5017647;28;20517;-86
2023/03/01 07:16:26;;;;;;;11.20;8.20;;;;;;;;;;5016327;28;20604;-81
2023/03/01 07:18:52;;;;;;;10.05;7.80;;;;;;;;;;5017244;28;20434;-85
2023/03/01 07:21:18;;;;;;;10.43;7.67;;;;;;;;;;5016356;28;20440;-81
2023/03/01 07:23:47;;;;;;;10.30;7.82;;;;;;;;;;5015619;28;20428;-81
2023/03/01 07:26:14;;;;;;;11.00;8.98;;;;;;;;;;5016395;28;20420;-83
2023/03/01 07:28:40;;;;;;;13.55;9.25;;;;;;;;;;5016226;28;20421;-81
2023/03/01 07:31:06;;;;;;;13.00;9.00;;;;;;;;;;5017464;28;20440;-81
2023/03/01 07:33:34;;;;;;;11.75;9.50;;;;;;;;;;5015210;28;20426;-82
2023/03/01 07:36:01;;;;;;;11.80;9.50;;;;;;;;;;5016499;28;20434;-84
2023/03/01 07:38:28;;;;;;;13.00;9.23;;;;;;;;;;5016438;28;20438;-81
2023/03/01 07:40:58;;;;;;;11.35;9.15;;;;;;;;;;5015351;28;20463;-81
2023/03/01 07:43:25;;;;;;;14.00;9.95;;;;;;;;;;5017604;28;20421;-81
2023/03/01 07:45:51;;;;;;;14.43;11.38;;;;;;;;;;5014735;28;20761;-81
2023/03/01 07:48:17;;;;;;;13.15;10.25;;;;;;;;;;5015974;28;20429;-82
2023/03/01 07:50:45;;;;;;;13.83;11.30;;;;;;;;;;5017289;28;20441;-82
2023/03/01 07:53:11;;;;;;;15.70;12.15;;;;;;;;;;5016376;28;20426;-83
2023/03/01 07:55:38;;;;;;;15.30;12.33;;;;;;;;;;5016224;28;20440;-82
2023/03/01 07:58:04;;;;;;;16.50;12.10;;;;;;;;;;5015784;28;20437;-82
2023/03/01 08:00:31;;;;;;;18.25;13.30;;;;;;;;;;5018799;28;20418;-82
2023/03/01 08:02:59;;;;;;;18.70;15.13;;;;;;;;;;5017506;28;20429;-82
2023/03/01 08:05:25;;;;;;;21.58;16.33;;;;;;;;;;5017940;28;20416;-82
2023/03/01 08:07:53;;;;;;;20.77;15.02;;;;;;;;;;5016246;28;20451;-82
2023/03/01 08:10:20;;;;;;;19.42;14.18;;;;;;;;;;5017208;28;20434;-82
2023/03/01 08:12:48;;;;;;;21.10;13.30;;;;;;;;;;5014408;28;20426;-83
2023/03/01 08:15:14;;;;;;;15.57;12.60;;;;;;;;;;5015534;28;20975;-82
2023/03/01 08:17:41;;;;;;;14.45;12.13;;;;;;;;;;5013502;28;20441;-83
2023/03/01 08:20:08;;;;;;;16.70;13.00;;;;;;;;;;5015478;28;20423;-82
2023/03/01 08:22:34;;;;;;;18.88;14.68;;;;;;;;;;5016773;28;20431;-84
2023/03/01 08:25:02;;;;;;;17.85;13.32;;;;;;;;;;5017576;28;20430;-82
2023/03/01 08:27:29;;;;;;;19.63;13.23;;;;;;;;;;5018486;23;20408;-82
2023/03/01 08:29:55;;;;;;;17.23;13.10;;;;;;;;;;5011515;28;20430;-86
2023/03/01 08:32:21;;;;;;;15.15;13.50;;;;;;;;;;5013522;28;20418;-84
2023/03/01 08:34:48;;;;;;;17.83;12.38;;;;;;;;;;5008924;28;20494;-84
2023/03/01 08:37:14;;;;;;;16.90;13.77;;;;;;;;;;5009739;28;20407;-82
2023/03/01 08:39:41;;;;;;;19.20;14.02;;;;;;;;;;5011786;28;20412;-83
2023/03/01 08:42:08;;;;;;;18.50;13.75;;;;;;;;;;5013519;28;20433;-84
2023/03/01 08:44:35;;;;;;;19.23;14.05;;;;;;;;;;5013202;28;20449;-84
2023/03/01 08:47:02;;;;;;;16.58;14.40;;;;;;;;;;5006343;28;20919;-84
2023/03/01 08:49:28;;;;;;;18.02;15.05;;;;;;;;;;5011960;28;20440;-83
2023/03/01 08:51:54;;;;;;;18.40;14.23;;;;;;;;;;5010552;28;20425;-83
2023/03/01 08:54:22;;;;;;;20.13;14.63;;;;;;;;;;5010298;28;20822;-83
2023/03/01 08:56:49;;;;;;;18.50;14.95;;;;;;;;;;5010732;28;20436;-83
2023/03/01 08:59:17;;;;;;;21.80;16.08;;;;;;;;;;5012132;28;20421;-84
2023/03/01 09:01:44;;;;;;;17.95;14.60;;;;;;;;;;5010589;28;20437;-84
2023/03/01 09:04:10;;;;;;;17.38;13.88;;;;;;;;;;5012810;28;20424;-83
2023/03/01 09:06:37;;;;;;;22.83;13.75;;;;;;;;;;5012382;28;20430;-83
2023/03/01 09:09:04;;;;;;;16.65;12.93;;;;;;;;;;5010234;28;20442;-84
2023/03/01 09:11:30;;;;;;;15.25;11.48;;;;;;;;;;5012447;28;20430;-83
2023/03/01 09:13:57;;;;;;;15.77;11.38;;;;;;;;;;5008062;28;20433;-84
2023/03/01 09:16:25;;;;;;;15.50;11.00;;;;;;;;;;5007357;28;20428;-84
2023/03/01 09:18:52;;;;;;;14.25;11.73;;;;;;;;;;5012428;28;20417;-84
2023/03/01 09:21:20;;;;;;;15.82;11.18;;;;;;;;;;5013992;28;20413;-84
2023/03/01 09:23:48;;;;;;;14.65;11.50;;;;;;;;;;5012554;28;20533;-83
2023/03/01 09:26:16;;;;;;;13.10;10.45;;;;;;;;;;5013490;28;20425;-84
2023/03/01 09:28:44;;;;;;;10.18;8.60;;;;;;;;;;5009942;28;20846;-85
2023/03/01 09:31:12;;;;;;;9.52;7.78;;;;;;;;;;5008805;28;20439;-84
2023/03/01 09:33:40;;;;;;;10.30;8.40;;;;;;;;;;5011253;28;20421;-83
2023/03/01 09:36:08;;;;;;;12.07;8.90;;;;;;;;;;5012332;28;20425;-84
2023/03/01 09:38:34;;;;;;;12.48;9.45;;;;;;;;;;5009377;28;20414;-85
2023/03/01 09:41:01;;;;;;;16.58;10.93;;;;;;;;;;5010643;28;20957;-83
2023/03/01 09:43:32;;;;;;;13.17;10.73;;;;;;;;;;5010143;28;20426;-84
2023/03/01 09:46:00;;;;;;;14.40;9.75;;;;;;;;;;5012155;28;20433;-84
2023/03/01 09:48:28;;;;;;;11.95;10.10;;;;;;;;;;5010274;28;20509;-90
2023/03/01 09:50:57;;;;;;;13.32;9.48;;;;;;;;;;5012270;28;20437;-84
2023/03/01 09:53:27;;;;;;;12.90;9.38;;;;;;;;;;5010794;28;20456;-84
2023/03/01 09:55:56;;;;;;;9.73;8.10;;;;;;;;;;5012520;28;20767;-84
2023/03/01 09:58:30;;;;;;;10.60;7.60;;;;;;;;;;5010610;28;20695;-85
2023/03/01 10:00:59;;;;;;;10.63;8.15;;;;;;;;;;5012975;28;20417;-84
2023/03/01 10:03:27;;;;;;;9.13;7.20;;;;;;;;;;5013249;28;20428;-84
2023/03/01 10:05:57;;;;;;;8.85;6.57;;;;;;;;;;5013271;28;20426;-84
2023/03/01 10:08:35;;;;;;;9.32;7.00;;;;;;;;;;5012194;28;20414;-84
2023/03/01 10:11:02;;;;;;;9.02;6.85;;;;;;;;;;5013526;28;20479;-83
2023/03/01 10:13:30;;;;;;;9.00;6.20;;;;;;;;;;5013485;28;20816;-84
2023/03/01 10:15:57;;;;;;;9.57;6.50;;;;;;;;;;5012858;28;20424;-84
2023/03/01 10:18:25;;;;;;;6.88;5.90;;;;;;;;;;5017384;28;20417;-83
2023/03/01 10:20:54;;;;;;;7.32;6.30;;;;;;;;;;5006626;28;20424;-84
2023/03/01 10:23:23;;;;;;;7.75;6.07;;;;;;;;;;5011082;28;20427;-84
2023/03/01 10:25:54;;;;;;;8.35;6.60;;;;;;;;;;5010540;28;20422;-84
2023/03/01 10:28:26;;;;;;;9.15;6.00;;;;;;;;;;5010949;28;20426;-84
2023/03/01 10:30:52;;;;;;;10.13;6.83;;;;;;;;;;5011374;28;20433;-84
2023/03/01 10:33:21;;;;;;;9.13;7.28;;;;;;;;;;5013204;28;20414;-84
2023/03/01 10:35:48;;;;;;;10.73;7.57;;;;;;;;;;5013409;28;20428;-86
2023/03/01 10:38:15;;;;;;;13.00;8.40;;;;;;;;;;5012795;28;20453;-84
2023/03/01 10:40:52;;;;;;;12.73;8.95;;;;;;;;;;5014295;28;20906;-83
2023/03/01 10:43:19;;;;;;;13.93;10.65;;;;;;;;;;5008851;28;20425;-83
2023/03/01 10:45:45;;;;;;;12.75;10.65;;;;;;;;;;5009839;28;20416;-85
2023/03/01 10:48:14;;;;;;;12.95;10.00;;;;;;;;;;5007930;28;20924;-84
2023/03/01 10:50:41;;;;;;;16.98;13.68;;;;;;;;;;5010094;28;20428;-84
2023/03/01 10:53:17;;;;;;;16.87;14.10;;;;;;;;;;5008819;28;20418;-84
2023/03/01 10:55:44;;;;;;;19.67;14.90;;;;;;;;;;5009027;28;20418;-83
2023/03/01 10:58:19;;;;;;;19.02;15.45;;;;;;;;;;5006071;28;20417;-83
2023/03/01 11:00:48;;;;;;;18.40;15.10;;;;;;;;;;5007548;28;20433;-84
2023/03/01 11:03:15;;;;;;;20.80;15.30;;;;;;;;;;5006914;28;20427;-84
2023/03/01 11:05:52;;;;;;;19.35;15.23;;;;;;;;;;5008304;28;20906;-84
2023/03/01 11:08:29;;;;;;;16.70;14.60;;;;;;;;;;5008761;28;20421;-83
2023/03/01 11:11:04;;;;;;;19.45;15.25;;;;;;;;;;5008470;28;20944;-84
2023/03/01 11:13:32;;;;;;;21.25;16.15;;;;;;;;;;5005807;28;20437;-84
2023/03/01 11:16:02;;;;;;;19.88;17.25;;;;;;;;;;5010278;28;20424;-84
2023/03/01 11:18:30;;;;;;;20.38;16.30;;;;;;;;;;5010301;28;20418;-84
2023/03/01 11:20:57;;;;;;;21.13;16.45;;;;;;;;;;5008487;28;20433;-85
2023/03/01 11:23:24;;;;;;;18.33;15.05;;;;;;;;;;5010087;28;20414;-84
2023/03/01 11:25:55;;;;;;;19.50;15.98;;;;;;;;;;5008923;28;20487;-84
2023/03/01 11:28:22;;;;;;;20.63;16.73;;;;;;;;;;5005754;28;20417;-84
2023/03/01 11:30:53;;;;;;;24.30;18.17;;;;;;;;;;5009746;28;20434;-84
2023/03/01 11:33:25;;;;;;;23.42;16.77;;;;;;;;;;5010703;28;20416;-84
2023/03/01 11:35:56;;;;;;;20.75;16.35;;;;;;;;;;5008895;28;20442;-84
2023/03/01 11:38:23;;;;;;;22.33;18.30;;;;;;;;;;5009713;28;20463;-84
2023/03/01 11:40:53;;;;;;;23.80;18.27;;;;;;;;;;5014942;28;20925;-84
2023/03/01 11:43:21;;;;;;;24.85;19.95;;;;;;;;;;5014325;28;20531;-84
2023/03/01 11:46:08;;;;;;;24.25;18.33;;;;;;;;;;5013933;28;20437;-84
2023/03/01 11:48:44;;;;;;;22.60;17.98;;;;;;;;;;5015514;28;20417;-84
2023/03/01 11:51:16;;;;;;;20.65;17.80;;;;;;;;;;5016723;28;20453;-84
2023/03/01 11:53:52;;;;;;;20.20;17.67;;;;;;;;;;5017107;28;20427;-84
2023/03/01 11:56:23;;;;;;;22.00;17.08;;;;;;;;;;5003750;28;20437;-84
2023/03/01 11:58:58;;;;;;;21.85;17.40;;;;;;;;;;4978010;28;20864;-84
2023/03/01 12:01:33;;;;;;;23.15;18.10;;;;;;;;;;5011248;28;20418;-83
2023/03/01 12:04:30;;;;;;;20.90;17.75;;;;;;;;;;5007464;28;20431;-84
2023/03/01 12:07:00;;;;;;;19.83;16.65;;;;;;;;;;4949248;29;20447;-84
2023/03/01 12:09:32;;;;;;;21.13;17.13;;;;;;;;;;4997297;28;20421;-84
2023/03/01 12:12:04;;;;;;;20.13;17.08;;;;;;;;;;5012246;28;20814;-84
2023/03/01 12:14:52;;;;;;;20.05;17.65;;;;;;;;;;5003480;28;20802;-84
2023/03/01 12:17:27;;;;;;;21.70;17.00;;;;;;;;;;4990118;28;20416;-84
2023/03/01 12:20:02;;;;;;;21.38;17.45;;;;;;;;;;5011721;28;20409;-84
2023/03/01 12:22:36;;;;;;;19.80;17.25;;;;;;;;;;5011309;28;20422;-84
2023/03/01 12:25:12;;;;;;;21.10;17.33;;;;;;;;;;5013411;28;20479;-84
2023/03/01 12:27:59;;;;;;;20.30;16.50;;;;;;;;;;4995668;28;20932;-84
2023/03/01 12:30:30;;;;;;;19.60;17.50;;;;;;;;;;4995754;28;20426;-83
2023/03/01 12:33:01;;;;;;;21.17;18.33;;;;;;;;;;5011745;28;20413;-84
2023/03/01 12:35:37;;;;;;;24.33;19.73;;;;;;;;;;5012334;28;21140;-83
2023/03/01 12:38:09;;;;;;;21.93;17.60;;;;;;;;;;5013075;28;20413;-84
2023/03/01 12:41:03;;;;;;;22.60;18.33;;;;;;;;;;5015117;28;20439;-84
2023/03/01 12:43:37;;;;;;;21.63;18.58;;;;;;;;;;4978007;28;20437;-84
2023/03/01 12:46:11;;;;;;;21.33;18.45;;;;;;;;;;5012104;28;20417;-83
2023/03/01 12:48:41;;;;;;;21.55;17.65;;;;;;;;;;5008026;28;20424;-83
2023/03/01 12:51:10;;;;;;;20.70;18.10;;;;;;;;;;5010769;28;20427;-85
2023/03/01 12:53:40;;;;;;;23.30;18.10;;;;;;;;;;5011683;28;20418;-84
2023/03/01 12:56:08;;;;;;;21.52;17.52;;;;;;;;;;5010699;28;20444;-84
2023/03/01 12:58:37;;;;;;;23.80;17.83;;;;;;;;;;5010780;28;20790;-84
2023/03/01 13:01:15;;;;;;;23.15;19.33;;;;;;;;;;5010302;28;20455;-84
2023/03/01 13:03:49;;;;;;;22.08;18.63;;;;;;;;;;5012508;28;20422;-84
2023/03/01 13:06:17;;;;;;;22.35;18.00;;;;;;;;;;5011361;28;20442;-84
2023/03/01 13:08:49;;;;;;;25.27;18.83;;;;;;;;;;5012742;28;20423;-84
2023/03/01 13:11:17;;;;;;;23.55;18.10;;;;;;;;;;5013352;28;20442;-84
2023/03/01 13:13:43;;;;;;;25.92;18.13;;;;;;;;;;5011527;28;20427;-84
2023/03/01 13:16:28;;;;;;;22.98;17.85;;;;;;;;;;5014058;28;20501;-83
2023/03/01 13:19:07;;;;;;;19.83;16.77;;;;;;;;;;5010623;28;20418;-84
2023/03/01 13:21:33;;;;;;;22.75;17.50;;;;;;;;;;5015023;28;20416;-84
2023/03/01 13:24:01;;;;;;;23.10;17.98;;;;;;;;;;5011353;28;20430;-84
2023/03/01 13:26:27;;;;;;;23.38;18.45;;;;;;;;;;5012687;28;21014;-84
2023/03/01 13:28:57;;;;;;;23.53;18.00;;;;;;;;;;5012012;28;20439;-84
2023/03/01 13:31:42;;;;;;;22.52;17.00;;;;;;;;;;5016125;28;20433;-84
2023/03/01 13:34:29;;;;;;;22.98;17.02;;;;;;;;;;5015277;28;20416;-85
2023/03/01 13:37:09;;;;;;;21.20;16.15;;;;;;;;;;5016983;28;20428;-83
2023/03/01 13:39:39;;;;;;;25.13;18.48;;;;;;;;;;5009453;28;20441;-84
2023/03/01 13:42:26;;;;;;;23.00;16.93;;;;;;;;;;5009679;28;20417;-83
2023/03/01 13:44:53;;;;;;;22.17;17.17;;;;;;;;;;5028269;28;20422;-84
2023/03/01 13:47:19;;;;;;;24.77;18.20;;;;;;;;;;5030674;28;20416;-84
2023/03/01 13:49:48;;;;;;;21.92;17.92;;;;;;;;;;5029443;28;21215;-84
2023/03/01 13:52:29;;;;;;;23.52;17.63;;;;;;;;;;5029332;28;20527;-84
2023/03/01 13:54:56;;;;;;;23.58;17.60;;;;;;;;;;5028129;28;20437;-83
2023/03/01 13:57:25;;;;;;;21.27;16.00;;;;;;;;;;5028364;28;20410;-84
2023/03/01 13:59:52;;;;;;;20.37;15.90;;;;;;;;;;5026742;28;20432;-84
2023/03/01 14:02:18;;;;;;;21.42;16.52;;;;;;;;;;5027654;28;20412;-84
2023/03/01 14:04:44;;;;;;;24.67;17.50;;;;;;;;;;5028247;28;20433;-84
2023/03/01 14:07:11;;;;;;;22.92;17.27;;;;;;;;;;5030363;28;20407;-84
2023/03/01 14:09:41;;;;;;;21.50;17.33;;;;;;;;;;5029094;28;20428;-84
2023/03/01 14:12:17;;;;;;;22.50;17.10;;;;;;;;;;5028190;28;20423;-86
2023/03/01 14:14:46;;;;;;;21.65;17.30;;;;;;;;;;5024328;28;20435;-84
2023/03/01 14:17:36;;;;;;;21.40;17.10;;;;;;;;;;5028215;28;20439;-84
2023/03/01 14:20:09;;;;;;;20.48;16.45;;;;;;;;;;5007883;28;20426;-84
2023/03/01 14:22:36;;;;;;;23.70;17.77;;;;;;;;;;5028154;28;20496;-84
2023/03/01 14:25:07;;;;;;;21.58;17.05;;;;;;;;;;5011615;28;20827;-83
2023/03/01 14:27:39;;;;;;;21.77;16.55;;;;;;;;;;5035503;23;20449;-80
2023/03/01 14:30:13;;;;;;;19.63;16.90;;;;;;;;;;5021343;28;20430;-82
2023/03/01 14:32:39;;;;;;;22.83;17.52;;;;;;;;;;5020176;28;20437;-82
2023/03/01 14:35:20;;;;;;;22.60;17.38;;;;;;;;;;5018780;28;20417;-82
2023/03/01 14:37:49;;;;;;;22.30;17.17;;;;;;;;;;5020116;28;20460;-82